Tiempo atmosférico en la estación meteorológica de Jabaloyas, Teruel (1430 m.)



Fecha
DESCASC
Temp. máxima en grados centígrados (hora)
DESCASC
Temp. mínima en grados centígrados (hora)
DESCASC
Temp. media en grados centígrados
DESCASC
Racha de viento máxima en m/sg (hora)
DESCASC
Velocidad máxima media en intervalos de 10 minutos(hora)
DESCASC
Precipitaciones diarias en mm
DESCASC
Precipitaciones de 00:00 a 06:00 en mm
DESCASC
Precipitaciones de 06:00 a 12:00 en mm
DESCASC
Precipitaciones de 12:00 a 18:00 en mm
DESCASC
Precipitaciones de 18:00 a 24:00 en mm
DESCASC
17-09-2019 -- (--) -- (--) -- -- (--) -- (--) -- 0 0 0 --
16-09-2019 -- (--) -- (--) -- -- (--) -- (--) -- 0 -- 2.2 0
05-09-2019 18.5 (16:00) 9 (00:00) 13.8 9.72 (08:50) 6.11 (09:40) 0 0 0 0 0
19-09-2019 21.4 (14:00) 13.1 (00:00) 17.3 8.06 (15:20) 5 (15:20) 0 0 0 0 0
15-09-2019 19.6 (17:00) 12.5 (00:00) 16.1 8.06 (17:10) 5.28 (15:10) 0 0 0 0 0
12-09-2019 18.4 (17:40) 9.3 (00:00) 13.8 11.94 (15:20) 7.22 (15:30) 0 0 0 0 0
09-09-2019 22.8 (16:30) 13.9 (03:00) 18.3 12.5 (18:00) 6.67 (16:40) 0 0 0 0 0
08-09-2019 20.3 (17:10) 12 (00:00) 16.1 7.5 (13:40) 4.17 (13:40) 0 0 0 0 0
06-09-2019 19.4 (16:50) 5.8 (00:00) 12.6 7.22 (14:50) 4.17 (15:10) 0 0 0 0 0
04-09-2019 25.2 (18:10) 12.7 (00:00) 19 7.5 (13:00) 4.17 (14:20) 0 0 0 0 0
03-09-2019 24.3 (16:50) 12.2 (00:00) 18.2 6.94 (14:20) 4.44 (12:30) 0 0 0 0 0
23-08-2019 25.7 (16:50) 14.3 (00:00) 20 8.89 (23:00) 5.83 (23:20) 0 0 0 0 0
29-08-2019 25 (17:10) 14.6 (00:00) 19.8 10.56 (21:50) 6.67 (21:10) 0 0 0 0 0
24-08-2019 26.4 (18:20) 13.9 (00:00) 20.1 8.61 (16:30) 5.56 (16:00) 0 0 0 0 0
28-08-2019 23.4 (18:10) 13.5 (00:00) 18.4 5.83 (11:10) 3.33 (01:30) 0 0 0 0 0
25-08-2019 25.3 (15:30) 15.1 (00:00) 20.2 10.28 (17:10) 6.39 (15:50) 0 0 0 0 0
01-09-2019 26.7 (14:50) 15.6 (00:00) 21.2 11.11 (16:20) 6.67 (16:30) 0 0 0 0 0
22-08-2019 24.1 (17:40) 12.5 (00:00) 18.3 8.61 (23:30) 5.83 (23:30) 0.2 0.2 0 0 0
31-08-2019 27.3 (17:10) 15.5 (00:00) 21.4 9.17 (17:50) 6.39 (17:50) 0.2 0 0 0 0.2
18-09-2019 23.3 (14:30) 13.6 (00:00) 18.4 9.44 (14:40) 5.28 (14:50) 0.2 0.2 0 0 0
26-08-2019 22.9 (16:00) 13.5 (00:00) 18.2 13.33 (18:30) 8.61 (18:30) 0.2 0 0 0.2 0
10-09-2019 17.3 (00:00) 6.6 (09:10) 11.9 21.11 (17:10) 14.17 (17:10) 0.8 0 0 0.2 0.6
14-09-2019 19.5 (15:30) 10.4 (00:00) 14.9 9.17 (18:20) 5.83 (18:40) 1.2 0 1.2 0 0
13-09-2019 14.1 (18:10) 10.9 (00:00) 12.5 8.89 (15:40) 5.28 (15:40) 3.4 0 0 3.4 0
07-09-2019 19.7 (14:40) 9 (00:00) 14.4 8.06 (14:30) 4.44 (13:10) 4.2 0 0 0 4.2
11-09-2019 11.9 (19:10) 6.8 (00:00) 9.3 18.89 (08:00) 11.94 (08:00) 5.6 0 0 0.6 5
02-09-2019 22 (14:50) 12.1 (00:00) 17.1 8.33 (01:20) 5 (14:30) 5.6 5 0.4 0.2 0
21-08-2019 21.4 (15:20) 11 (00:00) 16.2 12.78 (19:20) 7.22 (15:50) 7 0 0 0.8 6.2
27-08-2019 19.4 (13:40) 10.7 (00:00) 15 15.28 (02:10) 8.06 (02:30) 17.6 11.6 0 5.8 0.2
30-08-2019 27 (15:40) 15.4 (00:00) 21.2 12.5 (17:20) 8.33 (17:20) 22.2 0 0 22 0.2

Gráficas

Temp. máximas Temp. mínimas Temp. medias Precipitaciones Rachas de viento máximas Velocidades máximas media en intervalos de 10 minutos

Datos horarios

Fecha y hora oficial Temperatura (ºC) Velocidad del viento (km/h) Dirección del viento Racha (km/h) Dirección de racha Precipitación (mm) Presión (hPa) Tendencia (hPa) Humedad (%)
2019-09-19 23:00:00 13.3 7 Sudeste 16 Sur 0 -- -- 78
2019-09-19 22:00:00 13.7 9 Sudeste 23 Sudoeste 0 -- -- 83
2019-09-19 21:00:00 15.8 14 Sudoeste 28 Oeste 0 -- -- 65
2019-09-19 20:00:00 16.4 15 Sudeste 26 Sudeste 0 -- -- 80
2019-09-19 19:00:00 18.2 12 Sudeste 20 Sudeste 0 -- -- 63
2019-09-19 18:00:00 19.5 11 Sur 21 Sur 0 -- -- 55
2019-09-19 17:00:00 19.5 6 Sudoeste 25 Sudoeste 0 -- -- 58
2019-09-19 16:00:00 20.2 10 Sudeste 29 Sudeste 0 -- -- 53
2019-09-19 15:00:00 21.3 16 Sudeste 28 Sudeste 0 -- -- 50
2019-09-19 14:00:00 21.4 8 Sudeste 24 Sudeste 0 -- -- 50
2019-09-19 13:00:00 20.3 14 Sudeste 26 Sudeste 0 -- -- 59
2019-09-19 12:00:00 19.1 14 Sudeste 26 Sudeste 0 -- -- 61
2019-09-19 11:00:00 18.5 14 Sudeste 22 Sudeste 0 -- -- 61
2019-09-19 10:00:00 17.1 14 Sudeste 22 Sur 0 -- -- 65
2019-09-19 09:00:00 15.8 14 Sudeste 19 Sudeste 0 -- -- 66
2019-09-19 08:00:00 14.2 10 Sur 16 Sur 0 -- -- 69
2019-09-19 07:00:00 14.3 10 Sur 17 Sur 0 -- -- 69
2019-09-19 06:00:00 14.2 10 Sur 16 Sur 0 -- -- 68
2019-09-19 05:00:00 14.3 10 Sur 15 Sur 0 -- -- 70
2019-09-19 04:00:00 14.8 9 Sur 17 Sur 0 -- -- 73
2019-09-19 03:00:00 15 12 Sur 20 Sur 0 -- -- 65
2019-09-19 02:00:00 15.3 14 Sur 21 Sur 0 -- -- 68
2019-09-19 01:00:00 15.3 12 Sur 21 Sur 0 -- -- 72
2019-09-19 00:00:00 15.3 12 Sur 18 Sur 0 -- -- 74
2019-09-18 23:00:00 15.3 8 Sudeste 13 Sudeste 0 -- -- 78
2019-09-18 22:00:00 16 3 Este 8 Sur 0 -- -- 75
2019-09-18 21:00:00 16.9 3 Noroeste 10 Oeste 0 -- -- 70
2019-09-18 20:00:00 18.5 2 Noroeste 12 Este 0 -- -- 64
2019-09-18 19:00:00 20.6 8 Sudeste 16 Sur 0 -- -- 54
2019-09-18 18:00:00 21.1 6 Este 15 Este 0 -- -- 53
2019-09-18 17:00:00 21.3 6 Norte 18 Nordeste 0 -- -- 51
2019-09-18 16:00:00 21.9 6 Sudoeste 26 Sur 0 -- -- 44
2019-09-18 15:00:00 23.1 12 Sur 34 Sudeste 0 -- -- 45
2019-09-18 14:00:00 22.9 14 Sur 27 Sudeste 0 -- -- 45
2019-09-18 13:00:00 21.2 8 Sudoeste 21 Sudoeste 0 -- -- 47
2019-09-18 12:00:00 20.4 10 Sudoeste 20 Sudoeste 0 -- -- 49
2019-09-18 11:00:00 20.1 4 Este 22 Oeste 0 -- -- 54
2019-09-18 10:00:00 18.8 4 Sudoeste 17 Sudoeste 0 -- -- 48
2019-09-18 09:00:00 16.7 13 Sudoeste 20 Sudoeste 0 -- -- 53
2019-09-18 08:00:00 15.7 17 Sudoeste 22 Sudoeste 0 -- -- 53
2019-09-18 07:00:00 15 3 Sur 20 Sudoeste 0 -- -- 56
2019-09-18 06:00:00 14.8 2 Este 15 Sudoeste 0 -- -- 57
2019-09-18 05:00:00 14.9 5 Sudoeste 18 Sudoeste 0.2 -- -- 55
2019-09-18 04:00:00 13.9 3 Sur 13 Sur 0 -- -- 60
2019-09-18 03:00:00 15.7 7 Sur 19 Sur 0 -- -- 52
2019-09-18 02:00:00 15 4 Sur 10 Sur 0 -- -- 55
2019-09-18 01:00:00 14.9 5 Sur 12 Sur 0 -- -- 57
2019-09-18 00:00:00 13.6 5 Sur 19 Sudoeste 0 -- -- 66
2019-09-17 23:00:00 -- -- -- -- -- -- -- -- --
2019-09-17 22:00:00 13 8 Sudoeste 62 Sudoeste 3.6 -- -- 78
2019-09-17 21:00:00 15 18 Sudoeste 49 Sudoeste 0 -- -- 69
2019-09-15 18:00:00 -- -- -- -- -- -- -- -- --
2019-09-15 17:00:00 19.6 17 Sudeste 28 Este 0 -- -- 67
2019-09-15 16:00:00 18 16 Sudeste 24 Este 0 -- -- 75
2019-09-15 15:00:00 16.4 14 Este 25 Este 0 -- -- 82
2019-09-15 14:00:00 15.6 8 Sudeste 15 Este 0 -- -- 85
2019-09-15 13:00:00 15.2 6 Este 12 Este 0 -- -- 86
2019-09-15 12:00:00 15.3 3 Este 10 Nordeste 0 -- -- 84
2019-09-15 11:00:00 14.8 5 Norte 11 Norte 0 -- -- 82
2019-09-15 10:00:00 13.5 3 Noroeste 10 Oeste 0 -- -- 82
2019-09-15 09:00:00 13 5 Oeste 9 Noroeste 0 -- -- 84
2019-09-15 08:00:00 12.9 3 Noroeste 8 Norte 0 -- -- 82
2019-09-15 07:00:00 13 2 Oeste 8 Sudoeste 0 -- -- 80
2019-09-15 06:00:00 13.2 3 Noroeste 10 Oeste 0 -- -- 79
2019-09-15 05:00:00 12.5 3 Oeste 10 Sudeste 0 -- -- 82
2019-09-15 04:00:00 13 7 Sudeste 13 Sudeste 0 -- -- 76
2019-09-15 03:00:00 13.1 0 Calma 6 Sudeste 0 -- -- 81
2019-09-15 02:00:00 14.1 3 Sudeste 18 Sudeste 0 -- -- 79
2019-09-15 01:00:00 14.8 9 Este 13 Este 0 -- -- 79
2019-09-15 00:00:00 14.8 8 Sudeste 18 Este 0 -- -- 82
2019-09-14 23:00:00 14.7 5 Este 10 Este 0 -- -- 76
2019-09-14 22:00:00 14.5 3 Oeste 8 Norte 0 -- -- 73
2019-09-14 21:00:00 14.9 2 Noroeste 10 Este 0 -- -- 73
2019-09-14 20:00:00 16.6 8 Este 27 Este 0 -- -- 67
2019-09-14 19:00:00 17.3 14 Este 33 Este 0 -- -- 64
2019-09-14 18:00:00 18.9 18 Este 29 Nordeste 0 -- -- 57
2019-09-14 17:00:00 18.6 14 Sudeste 28 Este 0 -- -- 61
2019-09-14 16:00:00 18.8 20 Sudeste 31 Sudeste 0 -- -- 62
2019-09-14 15:00:00 19.3 12 Sudeste 24 Este 0 -- -- 61
2019-09-14 14:00:00 19.2 18 Este 30 Este 0 -- -- 59
2019-09-14 13:00:00 17.7 6 Nordeste 15 Nordeste 0 -- -- 65
2019-09-14 12:00:00 15.5 4 Noroeste 10 Noroeste 0.2 -- -- 76
2019-09-14 11:00:00 13.9 5 Norte 10 Nordeste 0 -- -- 77
2019-09-14 10:00:00 11.9 4 Norte 15 Sur 0 -- -- 84
2019-09-14 09:00:00 10.4 14 Sudeste 28 Sur 1 -- -- 86
2019-09-14 08:00:00 11.1 15 Sudeste 26 Sudeste 0 -- -- 80
2019-09-14 07:00:00 11.3 0 Calma 14 Sudeste 0 -- -- 77
2019-09-14 06:00:00 -- -- -- -- -- -- -- -- --
2019-09-14 05:00:00 12 10 Sudeste 18 Este 0 -- -- 79
2019-09-14 04:00:00 12.1 6 Este 17 Este 0 -- -- 77
2019-09-14 03:00:00 12.6 10 Este 17 Nordeste 0 -- -- 77
2019-09-14 02:00:00 11.9 3 Este 9 Oeste 0 -- -- 86
2019-09-14 01:00:00 11.7 2 Oeste 8 Sudoeste 0 -- -- 90
2019-09-14 00:00:00 12 0 Calma 17 Sudeste 0 -- -- 93
2019-09-13 23:00:00 13 9 Sudeste 23 Sudeste 0 -- -- 92
2019-09-13 22:00:00 13.3 0 Calma 14 Nordeste 0 -- -- 89
2019-09-13 21:00:00 13.4 5 Nordeste 23 Nordeste 0 -- -- 90
2019-09-13 20:00:00 13.7 11 Nordeste 29 Este 0 -- -- 88
2019-09-13 19:00:00 14 10 Nordeste 31 Este 0 -- -- 84
2019-09-13 18:00:00 14 10 Este 24 Este 0 -- -- 83
2019-09-13 17:00:00 13.8 10 Este 24 Este 0 -- -- 87
2019-09-13 16:00:00 12.1 17 Este 32 Este 0 -- -- 94
2019-09-13 15:00:00 11.5 2 Norte 10 Nordeste 1.2 -- -- 91
2019-09-13 14:00:00 11 6 Noroeste 19 Norte 2.2 -- -- 88
2019-09-13 13:00:00 12.4 10 Norte 28 Norte 0 -- -- 73
2019-09-13 12:00:00 12.8 16 Nordeste 28 Nordeste 0 -- -- 68
2019-09-13 11:00:00 13.2 11 Norte 22 Norte 0 -- -- 63
2019-09-13 10:00:00 12.5 8 Noroeste 20 Noroeste 0 -- -- 65
2019-09-13 09:00:00 12.3 13 Noroeste 21 Norte 0 -- -- 63
2019-09-13 08:00:00 11.9 13 Noroeste 30 Noroeste 0 -- -- 60
2019-09-13 07:00:00 12.1 15 Noroeste 23 Noroeste 0 -- -- 56
2019-09-13 06:00:00 11.9 15 Oeste 21 Oeste 0 -- -- 58
2019-09-13 05:00:00 12.4 10 Noroeste 18 Noroeste 0 -- -- 59
2019-09-13 04:00:00 12.7 13 Oeste 23 Oeste 0 -- -- 62
2019-09-13 03:00:00 13.7 4 Sudoeste 21 Sudeste 0 -- -- 46
2019-09-13 02:00:00 12.7 7 Sudeste 14 Norte 0 -- -- 56
2019-09-13 01:00:00 13.1 3 Oeste 17 Nordeste 0 -- -- 59
2019-09-13 00:00:00 13.9 4 Nordeste 15 Este 0 -- -- 65
2019-09-12 23:00:00 13.7 3 Oeste 15 Nordeste 0 -- -- 69
2019-09-12 22:00:00 14.4 4 Nordeste 18 Este 0 -- -- 67
2019-09-12 21:00:00 14.5 4 Este 12 Este 0 -- -- 68
2019-09-12 20:00:00 16.1 8 Nordeste 18 Este 0 -- -- 64
2019-09-12 19:00:00 17.5 12 Este 29 Este 0 -- -- 61
2019-09-12 18:00:00 18.4 18 Este 34 Este 0 -- -- 58
2019-09-12 17:00:00 18 18 Este 36 Sudeste 0 -- -- 59
2019-09-12 16:00:00 17.3 17 Este 43 Este 0 -- -- 63
2019-09-12 15:00:00 17.4 15 Este 36 Este 0 -- -- 63
2019-09-12 14:00:00 14.4 15 Nordeste 36 Este 0 -- -- 71
2019-09-12 13:00:00 13 20 Este 39 Este 0 -- -- 76
2019-09-12 12:00:00 13 21 Este 35 Este 0 -- -- 74
2019-09-12 11:00:00 13.9 11 Norte 25 Norte 0 -- -- 73
2019-09-12 10:00:00 12.5 7 Norte 22 Norte 0 -- -- 81
2019-09-12 09:00:00 10.8 12 Noroeste 24 Noroeste 0 -- -- 86
2019-09-12 08:00:00 10.3 8 Norte 24 Noroeste 0 -- -- 87
2019-09-12 07:00:00 9.6 16 Noroeste 30 Noroeste 0 -- -- 89
2019-09-12 06:00:00 9.3 17 Norte 33 Norte 0 -- -- 89
2019-09-12 05:00:00 9.7 16 Norte 34 Norte 0 -- -- 87
2019-09-12 04:00:00 9.7 12 Noroeste 30 Noroeste 0 -- -- 85
2019-09-12 03:00:00 9.8 17 Noroeste 26 Noroeste 0 -- -- 85
2019-09-12 02:00:00 9.9 12 Noroeste 21 Norte 0 -- -- 83
2019-09-12 01:00:00 10.6 9 Norte 24 Norte 0 -- -- 92
2019-09-12 00:00:00 10.4 10 Norte 19 Norte 0 -- -- 94
2019-09-11 23:00:00 10.7 9 Norte 17 Norte 0 -- -- 93
2019-09-11 22:00:00 10.8 6 Norte 22 Nordeste 0 -- -- 90
2019-09-11 21:00:00 10.9 6 Nordeste 23 Este 3.2 -- -- 94
2019-09-11 20:00:00 11.2 15 Nordeste 29 Nordeste 1.8 -- -- 91
2019-09-11 19:00:00 11.8 11 Norte 30 Norte 0 -- -- 83
2019-09-11 18:00:00 11.3 11 Norte 21 Nordeste 0 -- -- 85
2019-09-11 17:00:00 10.9 12 Norte 37 Nordeste 0 -- -- 80
2019-09-11 16:00:00 10.4 13 Norte 31 Norte 0.4 -- -- 85
2019-09-11 15:00:00 10.2 18 Norte 45 Norte 0.2 -- -- 79
2019-09-11 14:00:00 11.5 28 Norte 57 Norte 0 -- -- 71
2019-09-11 13:00:00 11.5 31 Norte 55 Norte 0 -- -- 67
2019-09-11 12:00:00 10.7 32 Norte 62 Norte 0 -- -- 66
2019-09-11 11:00:00 10.6 39 Noroeste 68 Noroeste 0 -- -- 68
2019-09-11 10:00:00 8.6 32 Noroeste 59 Noroeste 0 -- -- 79
2019-09-11 09:00:00 7.6 27 Noroeste 59 Noroeste 0 -- -- 84
2019-09-11 08:00:00 7.5 43 Noroeste 68 Noroeste 0 -- -- 87
2019-09-11 07:00:00 7.3 30 Noroeste 59 Noroeste 0 -- -- 87
2019-09-11 06:00:00 7.2 37 Noroeste 63 Noroeste 0 -- -- 86
2019-09-11 05:00:00 7.2 38 Noroeste 64 Noroeste 0 -- -- 85
2019-09-11 04:00:00 7.2 36 Noroeste 58 Noroeste 0 -- -- 86
2019-09-11 03:00:00 6.9 38 Noroeste 56 Noroeste 0 -- -- 86
2019-09-11 02:00:00 6.9 35 Noroeste 53 Noroeste 0 -- -- 85
2019-09-11 01:00:00 6.9 39 Noroeste 60 Noroeste 0 -- -- 85
2019-09-11 00:00:00 7.1 41 Noroeste 58 Norte 0 -- -- 82
2019-09-10 23:00:00 7.4 34 Noroeste 57 Noroeste 0 -- -- 79
2019-09-10 22:00:00 7 30 Noroeste 48 Noroeste 0 -- -- 82
2019-09-10 21:00:00 6.9 30 Noroeste 55 Noroeste 0 -- -- 78
2019-09-10 20:00:00 7.3 35 Noroeste 64 Noroeste 0 -- -- 77
2019-09-10 19:00:00 7.9 28 Noroeste 61 Noroeste 0.6 -- -- 75
2019-09-10 18:00:00 9.7 25 Noroeste 76 Noroeste 0.2 -- -- 69
2019-09-10 17:00:00 11 43 Noroeste 67 Noroeste 0 -- -- 58
2019-09-10 16:00:00 12.4 35 Noroeste 58 Noroeste 0 -- -- 42
2019-09-10 15:00:00 10.9 35 Noroeste 53 Noroeste 0 -- -- 53
2019-09-10 14:00:00 11.1 37 Noroeste 59 Noroeste 0 -- -- 50
2019-09-10 13:00:00 11.1 30 Noroeste 54 Noroeste 0 -- -- 52
2019-09-10 12:00:00 9.9 35 Noroeste 54 Noroeste 0 -- -- 55
2019-09-10 11:00:00 9.2 31 Noroeste 51 Noroeste 0 -- -- 62
2019-09-10 10:00:00 7.5 26 Noroeste 41 Noroeste 0 -- -- 75
2019-09-10 09:00:00 6.8 19 Norte 36 Noroeste 0 -- -- 89
2019-09-10 08:00:00 8.1 16 Noroeste 35 Noroeste 0 -- -- 86
2019-09-10 07:00:00 10.2 9 Norte 31 Oeste 0 -- -- 69
2019-09-10 06:00:00 13.2 23 Oeste 38 Oeste 0 -- -- 44
2019-09-10 05:00:00 13.5 15 Oeste 29 Oeste 0 -- -- 41
2019-09-10 04:00:00 14.5 16 Oeste 31 Oeste 0 -- -- 37
2019-09-10 03:00:00 15.2 19 Oeste 30 Sudoeste 0 -- -- 35
2019-09-10 02:00:00 15.7 16 Oeste 33 Oeste 0 -- -- 32
2019-09-10 01:00:00 16.7 19 Oeste 33 Oeste 0 -- -- 30
2019-09-10 00:00:00 17.3 16 Oeste 30 Oeste 0 -- -- 27
2019-09-09 23:00:00 18 19 Oeste 36 Oeste 0 -- -- 25
2019-09-09 22:00:00 18.5 11 Oeste 30 Oeste 0 -- -- 25
2019-09-09 21:00:00 19.1 7 Oeste 13 Sudoeste 0 -- -- 36
2019-09-09 20:00:00 20.2 7 Oeste 24 Oeste 0 -- -- 35
2019-09-09 19:00:00 21.6 13 Sudoeste 34 Oeste 0 -- -- 32
2019-09-09 18:00:00 22.2 19 Oeste 45 Oeste 0 -- -- 30
2019-09-09 17:00:00 22.8 15 Oeste 42 Oeste 0 -- -- 31
2019-09-09 16:00:00 22.5 16 Sudoeste 35 Oeste 0 -- -- 34
2019-09-09 15:00:00 22.3 12 Oeste 38 Oeste 0 -- -- 35
2019-09-09 14:00:00 21.2 16 Oeste 37 Oeste 0 -- -- 39
2019-09-09 13:00:00 21.1 11 Sudoeste 32 Sudoeste 0 -- -- 48
2019-09-09 12:00:00 19.9 13 Sudoeste 25 Sudoeste 0 -- -- 51
2019-09-09 11:00:00 18.5 12 Sudoeste 25 Oeste 0 -- -- 57
2019-09-09 10:00:00 17.1 7 Sudoeste 25 Sudoeste 0 -- -- 63
2019-09-09 09:00:00 15.9 6 Sudoeste 22 Oeste 0 -- -- 66
2019-09-09 08:00:00 15.2 10 Sudoeste 18 Oeste 0 -- -- 67
2019-09-09 07:00:00 14.6 17 Sudoeste 24 Sudoeste 0 -- -- 70
2019-09-09 06:00:00 15.5 16 Sudoeste 25 Oeste 0 -- -- 65
2019-09-09 05:00:00 14.6 18 Sudoeste 28 Sudoeste 0 -- -- 72
2019-09-09 04:00:00 14.1 19 Sudoeste 28 Sudoeste 0 -- -- 79
2019-09-09 03:00:00 13.9 14 Sudoeste 30 Sudoeste 0 -- -- 84
2019-09-09 02:00:00 14.5 14 Sur 25 Sur 0 -- -- 81
2019-09-09 01:00:00 14.7 10 Sur 22 Sur 0 -- -- 82
2019-09-09 00:00:00 14.2 9 Sur 15 Sur 0 -- -- 93
2019-09-08 23:00:00 15.3 5 Sur 11 Sudoeste 0 -- -- 86
2019-09-08 22:00:00 16.1 9 Sur 18 Sur 0 -- -- 79
2019-09-08 21:00:00 16.1 14 Sur 20 Sudeste 0 -- -- 76
2019-09-08 20:00:00 17.1 9 Sudeste 17 Sudeste 0 -- -- 71
2019-09-08 19:00:00 18.9 9 Sudeste 17 Este 0 -- -- 64
2019-09-08 18:00:00 19.9 4 Nordeste 17 Sudeste 0 -- -- 54
2019-09-08 17:00:00 20 11 Sudeste 19 Sudeste 0 -- -- 54
2019-09-08 16:00:00 18.8 8 Sudeste 19 Este 0 -- -- 59
2019-09-08 15:00:00 19.8 9 Sudeste 22 Sudeste 0 -- -- 56
2019-09-08 14:00:00 18.8 9 Sudeste 27 Sudeste 0 -- -- 59
2019-09-08 13:00:00 19 12 Sudeste 20 Sudeste 0 -- -- 60
2019-09-08 12:00:00 16.9 4 Norte 12 Norte 0 -- -- 66
2019-09-08 11:00:00 15.5 3 Noroeste 8 Nordeste 0 -- -- 75
2019-09-08 10:00:00 13.7 4 Noroeste 10 Norte 0 -- -- 84
2019-09-08 09:00:00 12.3 5 Norte 7 Noroeste 0 -- -- 90
2019-09-08 08:00:00 12 4 Oeste 10 Sur 0 -- -- 91
2019-09-08 07:00:00 12.2 0 Calma 6 Sudeste 0 -- -- 96
2019-09-08 06:00:00 12.2 0 Calma 12 Sudeste 0 -- -- 96
2019-09-08 05:00:00 12.3 7 Sudeste 11 Este 0 -- -- 96
2019-09-08 04:00:00 12.6 2 Sudeste 11 Sur 0 -- -- 94
2019-09-08 03:00:00 12.4 7 Sudeste 10 Sudeste 0 -- -- 94
2019-09-08 02:00:00 12.6 6 Sur 16 Sur 0 -- -- 92
2019-09-08 01:00:00 12.5 8 Sudeste 15 Sur 0 -- -- 91
2019-09-08 00:00:00 12.7 5 Oeste 10 Oeste 0 -- -- 68
2019-09-07 23:00:00 13.2 9 Noroeste 14 Norte 0 -- -- 70
2019-09-07 22:00:00 13.4 3 Oeste 15 Sudeste 0 -- -- 93
2019-09-07 21:00:00 14.4 12 Sudeste 19 Sudeste 0 -- -- 87
2019-09-07 20:00:00 15 3 Sur 10 Sudeste 0 -- -- 79
2019-09-07 19:00:00 14.9 5 Sudeste 28 Noroeste 4.2 -- -- 83
2019-09-07 18:00:00 17.9 5 Sudeste 17 Sudeste 0 -- -- 66
2019-09-07 17:00:00 19 9 Sudeste 20 Sudeste 0 -- -- 55
2019-09-07 16:00:00 18.9 13 Sudeste 24 Sudeste 0 -- -- 55
2019-09-07 15:00:00 19.4 11 Sudeste 29 Sudeste 0 -- -- 53
2019-09-07 14:00:00 18.4 13 Sudeste 28 Este 0 -- -- 59
2019-09-07 13:00:00 17.4 13 Sudeste 28 Sudeste 0 -- -- 62
2019-09-07 12:00:00 16.4 14 Sudeste 21 Sudeste 0 -- -- 66
2019-09-07 11:00:00 13.7 8 Este 14 Este 0 -- -- 71
2019-09-07 10:00:00 11.8 5 Este 10 Sudeste 0 -- -- 73
2019-09-07 09:00:00 10.6 6 Sudeste 10 Este 0 -- -- 75
2019-09-07 08:00:00 9.7 2 Noroeste 7 Noroeste 0 -- -- 75
2019-09-07 07:00:00 9.3 0 Calma 4 Noroeste 0 -- -- 74
2019-09-07 06:00:00 9.9 0 Calma 3 Noroeste 0 -- -- 72
2019-09-07 05:00:00 10.2 0 Calma 4 Noroeste 0 -- -- 66
2019-09-07 04:00:00 11.1 2 Nordeste 5 Oeste 0 -- -- 64
2019-09-07 03:00:00 11.3 5 Noroeste 8 Noroeste 0 -- -- 64
2019-09-07 02:00:00 11.8 0 Calma 11 Oeste 0 -- -- 62
2019-09-07 01:00:00 11 8 Oeste 15 Oeste 0 -- -- 62
2019-09-07 00:00:00 11.2 9 Oeste 16 Oeste 0 -- -- 61
2019-09-06 23:00:00 12.2 8 Noroeste 15 Noroeste 0 -- -- 58
2019-09-06 22:00:00 13.8 11 Noroeste 20 Noroeste 0 -- -- 52
2019-09-06 21:00:00 15.4 8 Oeste 13 Noroeste 0 -- -- 55
2019-09-06 20:00:00 17.1 4 Norte 13 Norte 0 -- -- 53
2019-09-06 19:00:00 18.5 6 Nordeste 15 Nordeste 0 -- -- 48
2019-09-06 18:00:00 19.1 9 Nordeste 19 Nordeste 0 -- -- 50
2019-09-06 17:00:00 19.3 8 Nordeste 18 Sudeste 0 -- -- 52
2019-09-06 16:00:00 19.2 10 Sudeste 25 Este 0 -- -- 53
2019-09-06 15:00:00 18.4 12 Sudeste 26 Este 0 -- -- 53
2019-09-06 14:00:00 16.8 10 Este 19 Este 0 -- -- 56
2019-09-06 13:00:00 15.4 9 Este 19 Sudeste 0 -- -- 59
2019-09-06 12:00:00 12.2 4 Noroeste 10 Norte 0 -- -- 65
2019-09-06 11:00:00 9.8 5 Noroeste 12 Noroeste 0 -- -- 69
2019-09-06 10:00:00 8.2 9 Noroeste 15 Oeste 0 -- -- 73
2019-09-06 09:00:00 7 9 Noroeste 18 Oeste 0 -- -- 77
2019-09-06 08:00:00 6.4 12 Oeste 18 Oeste 0 -- -- 78
2019-09-06 07:00:00 5.9 12 Oeste 18 Oeste 0 -- -- 83
2019-09-06 06:00:00 6.2 14 Oeste 22 Noroeste 0 -- -- 82
2019-09-06 05:00:00 6.5 9 Oeste 13 Noroeste 0 -- -- 80
2019-09-06 04:00:00 6.2 6 Noroeste 13 Noroeste 0 -- -- 82
2019-09-06 03:00:00 6.4 8 Oeste 12 Norte 0 -- -- 81
2019-09-06 02:00:00 6.8 7 Oeste 16 Noroeste 0 -- -- 79
2019-09-06 01:00:00 8 7 Noroeste 14 Noroeste 0 -- -- 75
2019-09-06 00:00:00 9 13 Noroeste 23 Noroeste 0 -- -- 72
2019-09-05 23:00:00 10.4 14 Noroeste 25 Oeste 0 -- -- 65
2019-09-05 22:00:00 11.9 14 Noroeste 24 Noroeste 0 -- -- 57
2019-09-05 21:00:00 13.7 13 Noroeste 24 Noroeste 0 -- -- 48
2019-09-05 20:00:00 15.7 13 Norte 23 Norte 0 -- -- 43
2019-09-05 19:00:00 17.5 13 Norte 27 Noroeste 0 -- -- 37
2019-09-05 18:00:00 18 15 Norte 27 Norte 0 -- -- 36
2019-09-05 17:00:00 18.1 15 Norte 30 Norte 0 -- -- 40
2019-09-05 16:00:00 18.5 14 Norte 30 Norte 0 -- -- 48
2019-09-05 15:00:00 17.8 15 Norte 29 Norte 0 -- -- 55
2019-09-05 14:00:00 17.2 14 Norte 23 Norte 0 -- -- 54
2019-09-05 13:00:00 15.4 15 Norte 26 Noroeste 0 -- -- 61
2019-09-05 12:00:00 13.3 17 Noroeste 33 Noroeste 0 -- -- 73
2019-09-05 11:00:00 11.7 17 Noroeste 32 Noroeste 0 -- -- 80
2019-09-05 10:00:00 10.9 20 Norte 31 Norte 0 -- -- 82
2019-09-05 09:00:00 10.9 19 Noroeste 35 Noroeste 0 -- -- 79
2019-09-05 08:00:00 10.9 16 Noroeste 29 Noroeste 0 -- -- 71
2019-09-05 07:00:00 10.7 18 Oeste 30 Oeste 0 -- -- 66
2019-09-05 06:00:00 10.5 13 Noroeste 21 Noroeste 0 -- -- 69
2019-09-05 05:00:00 10.6 13 Noroeste 19 Noroeste 0 -- -- 76
2019-09-05 04:00:00 11.5 9 Oeste 13 Oeste 0 -- -- 72
2019-09-05 03:00:00 14.4 8 Oeste 14 Oeste 0 -- -- 58
2019-09-05 02:00:00 14 8 Oeste 14 Oeste 0 -- -- 67
2019-09-05 01:00:00 14.9 9 Oeste 13 Oeste 0 -- -- 62
2019-09-05 00:00:00 15.3 10 Oeste 14 Noroeste 0 -- -- 57
2019-09-04 23:00:00 16.4 9 Noroeste 15 Noroeste 0 -- -- 50
2019-09-04 22:00:00 18 9 Noroeste 21 Norte 0 -- -- 46
2019-09-04 21:00:00 20.1 14 Noroeste 25 Norte 0 -- -- 41
2019-09-04 20:00:00 22.9 9 Noroeste 17 Norte 0 -- -- 33
2019-09-04 19:00:00 24.6 10 Norte 18 Nordeste 0 -- -- 31
2019-09-04 18:00:00 25 8 Norte 20 Sudeste 0 -- -- 35
2019-09-04 17:00:00 24.1 7 Este 13 Sudeste 0 -- -- 43
2019-09-04 16:00:00 23.8 9 Este 19 Este 0 -- -- 43
2019-09-04 15:00:00 24.9 6 Sudeste 23 Este 0 -- -- 48
2019-09-04 14:00:00 24.1 13 Sudeste 24 Este 0 -- -- 50
2019-09-04 13:00:00 23.6 15 Este 27 Este 0 -- -- 53
2019-09-04 12:00:00 22.9 5 Norte 12 Este 0 -- -- 41
2019-09-04 11:00:00 20.4 4 Este 10 Este 0 -- -- 70
2019-09-04 10:00:00 18 0 Calma 7 Este 0 -- -- 75
2019-09-04 09:00:00 15.5 0 Calma 4 Oeste 0 -- -- 81
2019-09-04 08:00:00 13.1 0 Calma 5 Noroeste 0 -- -- 86
2019-09-04 07:00:00 13.2 0 Calma 4 Sudeste 0 -- -- 88
2019-09-04 06:00:00 13.1 0 Calma 2 Noroeste 0 -- -- 79
2019-09-04 05:00:00 13.5 2 Oeste 7 Noroeste 0 -- -- 79
2019-09-04 04:00:00 14.2 0 Calma 12 Sudeste 0 -- -- 83
2019-09-04 03:00:00 14.4 2 Sudoeste 17 Sur 0 -- -- 84
2019-09-04 02:00:00 15 10 Sur 17 Sur 0 -- -- 90
2019-09-04 01:00:00 15.1 2 Oeste 14 Sur 0 -- -- 72
2019-09-04 00:00:00 16.1 4 Sudeste 10 Sudeste 0 -- -- 61
2019-09-03 23:00:00 17.7 8 Oeste 10 Oeste 0 -- -- 48
2019-09-03 22:00:00 19.1 6 Oeste 13 Noroeste 0 -- -- 39
2019-09-03 21:00:00 19.8 10 Oeste 14 Oeste 0 -- -- 44
2019-09-03 20:00:00 22 4 Norte 15 Nordeste 0 -- -- 39
2019-09-03 19:00:00 23.4 10 Norte 19 Norte 0 -- -- 38
2019-09-03 18:00:00 24.1 5 Norte 18 Este 0 -- -- 51
2019-09-03 17:00:00 24 13 Este 22 Este 0 -- -- 55
2019-09-03 16:00:00 23.6 9 Este 20 Este 0 -- -- 61
2019-09-03 15:00:00 23.7 13 Sudeste 25 Este 0 -- -- 61
2019-09-03 14:00:00 22.7 14 Sudeste 24 Este 0 -- -- 66
2019-09-03 13:00:00 21.8 15 Este 24 Este 0 -- -- 70
2019-09-03 12:00:00 20.2 15 Sudeste 21 Sudeste 0 -- -- 75
2019-09-03 11:00:00 18.7 7 Este 17 Este 0 -- -- 78
2019-09-03 10:00:00 17.1 6 Este 10 Este 0 -- -- 84
2019-09-03 09:00:00 15.2 5 Este 11 Sudeste 0 -- -- 96
2019-09-03 08:00:00 13.5 6 Este 15 Sudeste 0 -- -- 97
2019-09-03 07:00:00 12.7 6 Sudeste 10 Sudeste 0 -- -- 97
2019-09-03 06:00:00 12.3 9 Sudeste 15 Sudeste 0 -- -- 94
2019-09-03 05:00:00 12.5 10 Sudeste 18 Sudeste 0 -- -- 95
2019-09-03 04:00:00 13.2 9 Sudeste 13 Sudeste 0 -- -- 87
2019-09-03 03:00:00 14.3 3 Sudeste 9 Este 0 -- -- 78
2019-09-03 02:00:00 14.8 2 Sur 5 Sur 0 -- -- 80
2019-09-03 01:00:00 15.4 0 Calma 9 Sudeste 0 -- -- 79
2019-09-03 00:00:00 15.4 0 Calma 6 Oeste 0 -- -- 70
2019-09-02 23:00:00 15.6 5 Oeste 12 Oeste 0 -- -- 69
2019-09-02 22:00:00 16.1 8 Oeste 18 Norte 0 -- -- 73
2019-09-02 21:00:00 17 5 Sudeste 14 Sudeste 0 -- -- 84
2019-09-02 20:00:00 19 8 Este 14 Sudeste 0 -- -- 76
2019-09-02 19:00:00 20.7 6 Sudeste 15 Sudeste 0 -- -- 65
2019-09-02 18:00:00 21.5 7 Nordeste 13 Este 0 -- -- 64
2019-09-02 17:00:00 21.8 6 Este 15 Este 0 -- -- 57
2019-09-02 16:00:00 19.4 7 Sudoeste 25 Sudeste 0.2 -- -- 64
2019-09-02 15:00:00 22 17 Sudeste 29 Sudeste 0 -- -- 66
2019-09-02 14:00:00 20.5 12 Sudeste 24 Sudeste 0 -- -- 73
2019-09-02 13:00:00 18.2 8 Sudeste 17 Sudeste 0 -- -- 79
2019-09-02 12:00:00 16.6 12 Este 21 Sudeste 0 -- -- 82
2019-09-02 11:00:00 15.8 11 Este 18 Este 0 -- -- 88
2019-09-02 10:00:00 13.9 0 Calma 10 Noroeste 0 -- -- 97
2019-09-02 09:00:00 12.2 8 Oeste 12 Noroeste 0 -- -- 98
2019-09-02 08:00:00 12.3 6 Noroeste 11 Oeste 0 -- -- 97
2019-09-02 07:00:00 12.6 8 Noroeste 13 Noroeste 0.4 -- -- 97
2019-09-02 06:00:00 12.9 8 Noroeste 14 Oeste 0 -- -- 97
2019-09-02 05:00:00 13 9 Noroeste 13 Noroeste 0 -- -- 97
2019-09-02 04:00:00 13.3 7 Norte 12 Noroeste 0 -- -- 96
2019-09-02 03:00:00 14.1 4 Nordeste 12 Oeste 0.2 -- -- 95
2019-09-02 02:00:00 14.2 8 Oeste 30 Oeste 4 -- -- 94
2019-09-02 01:00:00 14.8 9 Oeste 19 Oeste 0.8 -- -- 90
2019-09-02 00:00:00 15.7 4 Oeste 11 Oeste 0 -- -- 80
2019-09-01 23:00:00 15.6 11 Oeste 22 Norte 0 -- -- 77
2019-09-01 22:00:00 17.6 10 Noroeste 19 Noroeste 0 -- -- 80
2019-09-01 21:00:00 18.5 0 Calma 10 Norte 0 -- -- 75
2019-09-01 20:00:00 20 2 Sudeste 19 Este 0 -- -- 66
2019-09-01 19:00:00 22 10 Norte 15 Norte 0 -- -- 55
2019-09-01 18:00:00 22.1 8 Noroeste 28 Norte 0 -- -- 50
2019-09-01 17:00:00 25.1 18 Noroeste 40 Oeste 0 -- -- 40
2019-09-01 16:00:00 26.5 6 Oeste 24 Oeste 0 -- -- 30
2019-09-01 15:00:00 25.9 13 Oeste 25 Oeste 0 -- -- 32
2019-09-01 14:00:00 25 12 Noroeste 23 Sudoeste 0 -- -- 34
2019-09-01 13:00:00 25.5 7 Sudoeste 24 Sur 0 -- -- 36
2019-09-01 12:00:00 24.3 11 Oeste 20 Sur 0 -- -- 39
2019-09-01 11:00:00 23.2 9 Sudoeste 26 Sudoeste 0 -- -- 40
2019-09-01 10:00:00 22 14 Sudoeste 28 Sudoeste 0 -- -- 46
2019-09-01 09:00:00 20.4 15 Sudoeste 30 Sudoeste 0 -- -- 50
2019-09-01 08:00:00 18.9 20 Sudoeste 30 Sudoeste 0 -- -- 56
2019-09-01 07:00:00 18.7 21 Sudoeste 37 Sudoeste 0 -- -- 59
2019-09-01 06:00:00 18.6 14 Sudoeste 28 Sudoeste 0 -- -- 58
2019-09-01 05:00:00 18.5 12 Sudoeste 26 Sudoeste 0 -- -- 59
2019-09-01 04:00:00 18.6 13 Sudoeste 26 Sudoeste 0 -- -- 55
2019-09-01 03:00:00 18.6 12 Sur 28 Sur 0 -- -- 51
2019-09-01 02:00:00 18.6 9 Sur 20 Sudoeste 0 -- -- 55
2019-09-01 01:00:00 19.6 11 Sudoeste 25 Sudoeste 0 -- -- 50
2019-09-01 00:00:00 19 6 Sur 24 Sudoeste 0 -- -- 51
2019-08-31 23:00:00 20.2 16 Sudoeste 25 Sudoeste 0 -- -- 49
2019-08-31 22:00:00 20.3 9 Sudoeste 23 Sudoeste 0 -- -- 50
2019-08-31 21:00:00 20.1 8 Sur 18 Sudeste 0 -- -- 51
2019-08-31 20:00:00 20.5 11 Sudeste 20 Sudeste 0 -- -- 58
2019-08-31 19:00:00 21.7 13 Sudeste 23 Sudeste 0.2 -- -- 52
2019-08-31 18:00:00 22.7 15 Sudeste 33 Sudeste 0 -- -- 45
2019-08-31 17:00:00 27.1 4 Oeste 13 Oeste 0 -- -- 28
2019-08-31 16:00:00 26.5 5 Noroeste 13 Oeste 0 -- -- 30
2019-08-31 15:00:00 24.7 8 Sudeste 17 Sudeste 0 -- -- 32
2019-08-31 14:00:00 25.4 6 Nordeste 17 Nordeste 0 -- -- 35
2019-08-31 13:00:00 24 7 Norte 15 Nordeste 0 -- -- 39
2019-08-31 12:00:00 23.6 6 Norte 16 Norte 0 -- -- 40
2019-08-31 11:00:00 22.2 6 Norte 10 Norte 0 -- -- 44
2019-08-31 10:00:00 20.8 4 Noroeste 8 Oeste 0 -- -- 49
2019-08-31 09:00:00 19.6 8 Oeste 10 Oeste 0 -- -- 50
2019-08-31 08:00:00 17.6 10 Oeste 14 Oeste 0 -- -- 52
2019-08-31 07:00:00 16.7 9 Oeste 12 Oeste 0 -- -- 53
2019-08-31 06:00:00 16.3 0 Calma 18 Sudoeste 0 -- -- 58
2019-08-31 05:00:00 16.6 13 Sudoeste 18 Sudoeste 0 -- -- 57
2019-08-31 04:00:00 16.7 2 Oeste 13 Sudeste 0 -- -- 54
2019-08-31 03:00:00 17.6 4 Oeste 10 Oeste 0 -- -- 50
2019-08-31 02:00:00 17 8 Oeste 12 Oeste 0 -- -- 55
2019-08-31 01:00:00 16.3 9 Oeste 13 Oeste 0 -- -- 60
2019-08-31 00:00:00 15.9 10 Oeste 15 Oeste 0 -- -- 63
2019-08-30 23:00:00 16 6 Noroeste 10 Noroeste 0 -- -- 64
2019-08-30 22:00:00 17.3 6 Noroeste 37 Sudoeste 0 -- -- 63
2019-08-30 21:00:00 18.5 26 Sudoeste 41 Oeste 0 -- -- 55
2019-08-30 20:00:00 18.4 16 Sudoeste 36 Sudoeste 0 -- -- 57
2019-08-30 19:00:00 18 9 Sur 36 Sur 0.2 -- -- 66
2019-08-30 18:00:00 15.7 17 Sur 45 Sudeste 22 -- -- 74
2019-08-30 17:00:00 24.8 12 Sudeste 24 Sudeste 0 -- -- 43
2019-08-30 16:00:00 26.8 7 Este 24 Nordeste 0 -- -- 27
2019-08-30 15:00:00 25.6 9 Este 22 Norte 0 -- -- 33
2019-08-30 14:00:00 26.3 8 Este 25 Este 0 -- -- 36
2019-08-30 13:00:00 25.2 10 Este 21 Este 0 -- -- 39
2019-08-30 12:00:00 24.2 8 Nordeste 17 Este 0 -- -- 42
2019-08-30 11:00:00 22.6 4 Norte 9 Norte 0 -- -- 47
2019-08-30 10:00:00 21.3 5 Norte 8 Norte 0 -- -- 51
2019-08-30 09:00:00 19.4 6 Oeste 10 Noroeste 0 -- -- 59
2019-08-30 08:00:00 17.4 2 Oeste 6 Sudeste 0 -- -- 62
2019-08-30 07:00:00 17 0 Calma 6 Sudeste 0 -- -- 62
2019-08-30 06:00:00 17.2 3 Sudeste 7 Oeste 0 -- -- 61
2019-08-30 05:00:00 17.5 3 Sudoeste 8 Oeste 0 -- -- 61
2019-08-30 04:00:00 16.8 7 Oeste 12 Oeste 0 -- -- 65
2019-08-30 03:00:00 16.7 4 Oeste 15 Oeste 0 -- -- 64
2019-08-30 02:00:00 16.8 13 Oeste 28 Oeste 0 -- -- 66
2019-08-30 01:00:00 16.9 20 Noroeste 40 Oeste 0 -- -- 65
2019-08-30 00:00:00 17.6 8 Oeste 21 Sudoeste 0 -- -- 56
2019-08-29 23:00:00 19.3 17 Sudoeste 35 Sudoeste 0 -- -- 50
2019-08-29 22:00:00 19 23 Sudoeste 38 Sudoeste 0 -- -- 53
2019-08-29 21:00:00 19.5 21 Sudoeste 34 Sudoeste 0 -- -- 51
2019-08-29 20:00:00 22 5 Oeste 31 Sudoeste 0 -- -- 43
2019-08-29 19:00:00 20.3 18 Sudoeste 33 Sudoeste 0 -- -- 50
2019-08-29 18:00:00 24.6 6 Sur 17 Sudeste 0 -- -- 43
2019-08-29 17:00:00 24.8 9 Sudeste -- -- -- -- -- 42
2019-08-29 16:00:00 -- 5 Sudeste 13 Nordeste 0 -- -- --
2019-08-29 15:00:00 23.7 3 Norte 14 Nordeste 0 -- -- 45
2019-08-29 14:00:00 23.5 4 Sudoeste 16 Sudeste 0 -- -- 45
2019-08-29 13:00:00 22.7 5 Sur 18 Sudeste 0 -- -- 48
2019-08-29 12:00:00 23.2 9 Este 18 Este 0 -- -- 52
2019-08-29 11:00:00 21.4 5 Este 9 Este 0 -- -- 60
2019-08-29 10:00:00 19.3 5 Sudeste 8 Este 0 -- -- 71
2019-08-29 09:00:00 16.2 0 Calma 3 Sur 0 -- -- 82
2019-08-29 08:00:00 15.8 4 Sur 18 Oeste 0 -- -- 81
2019-08-29 07:00:00 14.9 6 Sudeste 17 Sudeste 0 -- -- 84
2019-08-29 06:00:00 15.2 6 Sudeste 32 Sudoeste 0 -- -- 82
2019-08-29 05:00:00 16.5 22 Sudoeste 37 Sudoeste 0 -- -- 81
2019-08-29 04:00:00 14.9 5 Sudeste 11 Sudeste 0 -- -- 79
2019-08-29 03:00:00 15.8 3 Norte 19 Sur 0 -- -- 75
2019-08-29 02:00:00 15.6 12 Sudeste 22 Sudeste 0 -- -- 78
2019-08-29 01:00:00 17.4 11 Sur 17 Sur 0 -- -- 69
2019-08-29 00:00:00 17.3 9 Sur 15 Sudeste 0 -- -- 70
2019-08-28 23:00:00 17.3 9 Sudeste 13 Sudeste 0 -- -- 74
2019-08-28 22:00:00 18 10 Sur 14 Sudeste 0 -- -- 70
2019-08-28 21:00:00 20.1 6 Sudeste 9 Sur 0 -- -- 56
2019-08-28 20:00:00 21.8 2 Nordeste 11 Sudoeste 0 -- -- 53
2019-08-28 19:00:00 22.9 5 Sur 9 Sur 0 -- -- 48
2019-08-28 18:00:00 23.3 0 Calma 9 Norte 0 -- -- 47
2019-08-28 17:00:00 23 4 Nordeste 12 Sur 0 -- -- 47
2019-08-28 16:00:00 21.2 4 Oeste 13 Nordeste 0 -- -- 54
2019-08-28 15:00:00 21.4 4 Norte 19 Norte 0 -- -- 52
2019-08-28 14:00:00 22.4 6 Norte 17 Nordeste 0 -- -- 51
2019-08-28 13:00:00 20.7 5 Nordeste 15 Nordeste 0 -- -- 55
2019-08-28 12:00:00 20.3 6 Este 21 Noroeste 0 -- -- 53
2019-08-28 11:00:00 19.3 6 Norte 17 Norte 0 -- -- 60
2019-08-28 10:00:00 17.1 5 Noroeste 8 Noroeste 0 -- -- 68
2019-08-28 09:00:00 15.7 4 Norte 11 Oeste 0 -- -- 74
2019-08-28 08:00:00 14 9 Oeste 12 Oeste 0 -- -- 77
2019-08-28 07:00:00 13.5 7 Oeste 10 Oeste 0 -- -- 72
2019-08-28 06:00:00 13.6 7 Oeste 10 Oeste 0 -- -- 71
2019-08-28 05:00:00 13.7 5 Oeste 10 Oeste 0 -- -- 72
2019-08-28 04:00:00 14.1 5 Oeste 12 Oeste 0 -- -- 68
2019-08-28 03:00:00 14 8 Oeste 11 Oeste 0 -- -- 73
2019-08-28 02:00:00 14.1 3 Noroeste 16 Oeste 0 -- -- 75
2019-08-28 01:00:00 14.2 10 Oeste 13 Oeste 0 -- -- 73
2019-08-28 00:00:00 14.1 10 Oeste 15 Oeste 0 -- -- 77
2019-08-27 23:00:00 14.3 9 Oeste 14 Oeste 0 -- -- 78
2019-08-27 22:00:00 14.5 9 Oeste 12 Oeste 0 -- -- 81
2019-08-27 21:00:00 15.2 7 Oeste 10 Oeste 0.2 -- -- 81
2019-08-27 20:00:00 16.7 0 Calma 5 Oeste 0 -- -- 83
2019-08-27 19:00:00 16.2 2 Sur 6 Oeste 0 -- -- 74
2019-08-27 18:00:00 15.4 0 Calma 5 Sudoeste 0 -- -- 82
2019-08-27 17:00:00 14 3 Noroeste 27 Oeste 3.2 -- -- 83
2019-08-27 16:00:00 15.3 18 Noroeste 32 Noroeste 2.6 -- -- 77
2019-08-27 15:00:00 18.6 12 Sudeste 23 Sudeste 0 -- -- 59
2019-08-27 14:00:00 18.8 10 Sudeste 22 Este 0 -- -- 60
2019-08-27 13:00:00 18.9 8 Sudeste 24 Sudeste 0 -- -- 59
2019-08-27 12:00:00 17.6 11 Sudeste 24 Sudeste 0 -- -- 64
2019-08-27 11:00:00 17.8 12 Sur 22 Sudeste 0 -- -- 56
2019-08-27 10:00:00 16 8 Sudeste 19 Sudeste 0 -- -- 69
2019-08-27 09:00:00 14.6 12 Sudeste 21 Sudeste 0 -- -- 66
2019-08-27 08:00:00 12 13 Sur 18 Sur 0 -- -- 76
2019-08-27 07:00:00 10.8 6 Oeste 10 Oeste 0 -- -- 83
2019-08-27 06:00:00 10.7 7 Oeste 14 Oeste 0 -- -- 94
2019-08-27 05:00:00 11.1 5 Noroeste 21 Noroeste 0.2 -- -- 91
2019-08-27 04:00:00 11.3 3 Noroeste 28 Noroeste 1.6 -- -- 93
2019-08-27 03:00:00 11.8 12 Oeste 55 Sudoeste 5.6 -- -- 90
2019-08-27 02:00:00 13.9 5 Norte 26 Sudeste 3.4 -- -- 94
2019-08-27 01:00:00 14.2 21 Sudeste 32 Sur 0.8 -- -- 88
2019-08-27 00:00:00 15.6 17 Sur 32 Sur 0 -- -- 68
2019-08-26 23:00:00 15.1 14 Sur 30 Sur 0 -- -- 87
2019-08-26 22:00:00 15.9 16 Sudeste 29 Sur 0 -- -- 84
2019-08-26 21:00:00 16.6 13 Sudeste 32 Sudeste 0 -- -- 80
2019-08-26 20:00:00 17.7 23 Sudeste 41 Sudeste 0 -- -- 74
2019-08-26 19:00:00 19.2 23 Sudeste 48 Este 0 -- -- 65
2019-08-26 18:00:00 20.3 27 Sudeste 42 Sudeste 0 -- -- 58
2019-08-26 17:00:00 21.2 23 Sudeste 43 Sudeste 0 -- -- 58
2019-08-26 16:00:00 22.9 23 Sudeste 37 Este 0 -- -- 48
2019-08-26 15:00:00 22.4 18 Sudeste 33 Sudeste 0 -- -- 48
2019-08-26 14:00:00 21 16 Sudeste 36 Sudeste 0 -- -- 56
2019-08-26 13:00:00 19 23 Sudeste 41 Sur 0.2 -- -- 64
2019-08-26 12:00:00 15.6 16 Sudeste 33 Sudeste 0 -- -- 79
2019-08-26 11:00:00 16.7 16 Sudeste 36 Sudeste 0 -- -- 73
2019-08-26 10:00:00 17.3 17 Sudeste 31 Sudeste 0 -- -- 64
2019-08-26 09:00:00 15.3 13 Sudeste 27 Sudeste 0 -- -- 78
2019-08-26 08:00:00 13.7 17 Sudeste 32 Sur 0 -- -- 86
2019-08-26 07:00:00 13.6 21 Sudeste 34 Sudeste 0 -- -- 83
2019-08-26 06:00:00 14.2 17 Sudeste 32 Sur 0 -- -- 75
2019-08-26 05:00:00 14.2 15 Sudeste 27 Sudeste 0 -- -- 78
2019-08-26 04:00:00 14.1 15 Sudeste 30 Sudeste 0 -- -- 79
2019-08-26 03:00:00 14.4 18 Sur 33 Sur 0 -- -- 72
2019-08-26 02:00:00 14.5 14 Sudeste 24 Sur 0 -- -- 64
2019-08-26 01:00:00 14.9 17 Sudeste 24 Sur 0 -- -- 65
2019-08-26 00:00:00 15.1 16 Sur 26 Sur 0 -- -- 68
2019-08-25 23:00:00 15.6 15 Sur 26 Sur 0 -- -- 64
2019-08-25 22:00:00 17 15 Sudeste 31 Sudeste 0 -- -- 57
2019-08-25 21:00:00 18.3 19 Sudeste 33 Sudeste 0 -- -- 49
2019-08-25 20:00:00 20.1 20 Sudeste 33 Sudeste 0 -- -- 49
2019-08-25 19:00:00 22.1 19 Sudeste 33 Sudeste 0 -- -- 41
2019-08-25 18:00:00 23.7 20 Sudeste 37 Sudeste 0 -- -- 39
2019-08-25 17:00:00 24.7 18 Sudeste 34 Este 0 -- -- 34
2019-08-25 16:00:00 24.6 17 Sudeste 33 Este 0 -- -- 33
2019-08-25 15:00:00 24.7 19 Este 36 Sudeste 0 -- -- 32
2019-08-25 14:00:00 24.6 15 Este 33 Este 0 -- -- 30
2019-08-25 13:00:00 24.2 16 Sudeste 30 Sudeste 0 -- -- 29
2019-08-25 12:00:00 23.5 15 Sudeste 24 Este 0 -- -- 27
2019-08-25 11:00:00 22.4 13 Sudeste 20 Este 0 -- -- 32
2019-08-25 10:00:00 21 10 Sudeste 18 Sur 0 -- -- 35
2019-08-25 09:00:00 19 10 Sudeste 21 Sudeste 0 -- -- 43
2019-08-25 08:00:00 16.1 14 Sudeste 20 Sur 0 -- -- 54
2019-08-25 07:00:00 15.7 13 Sur 19 Sur 0 -- -- 52
2019-08-25 06:00:00 16.7 13 Sur 19 Sur 0 -- -- 42
2019-08-25 05:00:00 16.4 11 Sur 23 Sur 0 -- -- 51
2019-08-25 04:00:00 16.3 16 Sur 28 Sur 0 -- -- 53
2019-08-25 03:00:00 17.1 17 Sur 27 Sur 0 -- -- 50
2019-08-25 02:00:00 17.4 15 Sur 23 Sur 0 -- -- 50
2019-08-25 01:00:00 18.1 13 Sur 22 Sur 0 -- -- 68
2019-08-25 00:00:00 18.1 10 Sur 20 Sur 0 -- -- 64
2019-08-24 23:00:00 17.6 13 Sur 20 Sur 0 -- -- 71
2019-08-24 22:00:00 17.6 13 Sudeste 26 Sudeste 0 -- -- 69
2019-08-24 21:00:00 19.2 19 Sudeste 31 Sudeste 0 -- -- 62
2019-08-24 20:00:00 21.4 15 Sudeste 25 Sudeste 0 -- -- 52
2019-08-24 19:00:00 24.4 15 Sudeste 26 Sudeste 0 -- -- 39
2019-08-24 18:00:00 26.3 10 Noroeste 27 Noroeste 0 -- -- 26
2019-08-24 17:00:00 26 16 Norte 31 Norte 0 -- -- 27
2019-08-24 16:00:00 25.8 20 Norte 31 Noroeste 0 -- -- 27
2019-08-24 15:00:00 26 12 Norte 29 Norte 0 -- -- 26
2019-08-24 14:00:00 25 10 Noroeste 27 Este 0 -- -- 29
2019-08-24 13:00:00 24.2 6 Norte 23 Norte 0 -- -- 32
2019-08-24 12:00:00 23.5 6 Sudeste 17 Este 0 -- -- 39
2019-08-24 11:00:00 22.1 4 Norte 14 Nordeste 0 -- -- 39
2019-08-24 10:00:00 20.6 2 Norte 6 Oeste 0 -- -- 42
2019-08-24 09:00:00 18.1 4 Noroeste 6 Noroeste 0 -- -- 47
2019-08-24 08:00:00 14.9 0 Calma 4 Oeste 0 -- -- 57
2019-08-24 07:00:00 14.5 0 Calma 8 Oeste 0 -- -- 57
2019-08-24 06:00:00 14.2 0 Calma 5 Este 0 -- -- 60
2019-08-24 05:00:00 14.4 0 Calma 10 Oeste 0 -- -- 60
2019-08-24 04:00:00 14.9 4 Norte 12 Sur 0 -- -- 59
2019-08-24 03:00:00 15.3 4 Sur 14 Sudeste 0 -- -- 57
2019-08-24 02:00:00 16 10 Sur 23 Sur 0 -- -- 54
2019-08-24 01:00:00 16.3 15 Sur 28 Sudeste 0 -- -- 56
2019-08-24 00:00:00 16.1 18 Sur 31 Sur 0 -- -- 58
2019-08-23 23:00:00 16.9 21 Sur 32 Sur 0 -- -- 55
2019-08-23 22:00:00 17.6 21 Sudeste 27 Sudeste 0 -- -- 53
2019-08-23 21:00:00 19.6 13 Sudeste 23 Sudeste 0 -- -- 45
2019-08-23 20:00:00 22.7 9 Sur 19 Sur 0 -- -- 32
2019-08-23 19:00:00 24.4 11 Sudeste 22 Sudeste 0 -- -- 28
2019-08-23 18:00:00 25.3 11 Sudeste 25 Sudeste 0 -- -- 28
2019-08-23 17:00:00 25.6 13 Sudeste 27 Este 0 -- -- 27
2019-08-23 16:00:00 24.9 9 Sudeste 26 Este 0 -- -- 29
2019-08-23 15:00:00 24.4 13 Sudeste 26 Sudeste 0 -- -- 31
2019-08-23 14:00:00 23.4 3 Sudeste 21 Este 0 -- -- 34
2019-08-23 13:00:00 22.7 6 Sudeste 23 Este 0 -- -- 37
2019-08-23 12:00:00 21.4 8 Sudeste 20 Este 0 -- -- 41
2019-08-23 11:00:00 20.5 12 Este 20 Sudeste 0 -- -- 38
2019-08-23 10:00:00 19 12 Sudeste 18 Sudeste 0 -- -- 44
2019-08-23 09:00:00 17.5 10 Sudeste 17 Sur 0 -- -- 56
2019-08-23 08:00:00 15 12 Sur 21 Sur 0 -- -- 70
2019-08-23 07:00:00 14.6 13 Sur 19 Sur 0 -- -- 71
2019-08-23 06:00:00 14.7 13 Sur 24 Sur 0 -- -- 70
2019-08-23 05:00:00 14.9 15 Sur 27 Sur 0 -- -- 71
2019-08-23 04:00:00 15.3 15 Sur 26 Sur 0 -- -- 69
2019-08-23 03:00:00 15.5 17 Sur 25 Sur 0 -- -- 60
2019-08-23 02:00:00 15.6 3 Sudoeste 21 Sudeste 0 -- -- 68
2019-08-23 01:00:00 15.8 12 Sur 28 Sur 0 -- -- 66
2019-08-23 00:00:00 16.1 18 Sur 31 Sur 0 -- -- 62
2019-08-22 23:00:00 16.5 18 Sur 27 Sur 0 -- -- 64
2019-08-22 22:00:00 16.6 17 Sur 25 Sur 0 -- -- 66
2019-08-22 21:00:00 18.4 15 Sudeste 23 Sudeste 0 -- -- 63
2019-08-22 20:00:00 22.9 9 Este 15 Nordeste 0 -- -- 38
2019-08-22 19:00:00 23.6 10 Este 24 Sudeste 0 -- -- 33
2019-08-22 18:00:00 24.1 8 Nordeste 19 Sudeste 0 -- -- 37
2019-08-22 17:00:00 23.6 10 Este 20 Este 0 -- -- 40
2019-08-22 16:00:00 23.7 12 Este 22 Este 0 -- -- 42
2019-08-22 15:00:00 23.5 12 Este 25 Este 0 -- -- 45
2019-08-22 14:00:00 22.2 6 Sudeste 17 Sudeste 0 -- -- 46
2019-08-22 13:00:00 20.5 4 Norte 15 Este 0 -- -- 49
2019-08-22 12:00:00 20.2 2 Este 14 Este 0 -- -- 55
2019-08-22 11:00:00 18.8 6 Este 12 Este 0 -- -- 64
2019-08-22 10:00:00 17.3 4 Nordeste 6 Nordeste 0 -- -- 70
2019-08-22 09:00:00 14.8 5 Noroeste 8 Oeste 0 -- -- 79
2019-08-22 08:00:00 13.2 6 Oeste 13 Oeste 0 -- -- 83
2019-08-22 07:00:00 12.8 10 Oeste 15 Oeste 0 -- -- 84
2019-08-22 06:00:00 13.1 12 Oeste 17 Oeste 0 -- -- 83
2019-08-22 05:00:00 13 14 Oeste 18 Oeste 0 -- -- 83
2019-08-22 04:00:00 13.4 11 Oeste 17 Noroeste 0.2 -- -- 80
2019-08-22 03:00:00 13.8 11 Oeste 21 Noroeste 0 -- -- 76
2019-08-22 02:00:00 14.1 12 Oeste 17 Oeste 0 -- -- 67
2019-08-22 01:00:00 13.2 10 Oeste 16 Norte 0 -- -- 70
2019-08-22 00:00:00 14.4 13 Oeste 21 Oeste 0 -- -- 66
2019-08-21 23:00:00 15.4 13 Oeste 30 Oeste 0 -- -- 58
2019-08-21 22:00:00 13.1 12 Oeste 22 Oeste 0 -- -- 78
2019-08-21 21:00:00 12 3 Norte 23 Oeste 0.4 -- -- 91
2019-08-21 20:00:00 11.3 12 Oeste 46 Nordeste 5.2 -- -- 95
2019-08-21 19:00:00 15.9 8 Este 14 Sudeste 0.6 -- -- 91
2019-08-21 18:00:00 17.3 10 Este 22 Sur 0.8 -- -- 85
2019-08-21 17:00:00 17.8 8 Nordeste 30 Sur 0 -- -- 78
2019-08-21 16:00:00 20.2 22 Sudeste 44 Sudeste 0 -- -- 71
2019-08-21 15:00:00 20.9 19 Sudeste 29 Sudeste 0 -- -- 68
2019-08-21 14:00:00 18 15 Sudeste 27 Sudeste 0 -- -- 80
2019-08-21 13:00:00 17.8 10 Sudeste 19 Sudeste 0 -- -- 81
2019-08-21 12:00:00 16.2 10 Sudeste 22 Sur 0 -- -- 94
2019-08-21 11:00:00 14.4 14 Sudeste 28 Sudeste 0 -- -- 97
2019-08-21 10:00:00 14 11 Sudeste 20 Sudeste 0 -- -- 97
2019-08-21 09:00:00 13.9 9 Sudeste 19 Sudeste 0 -- -- 96
2019-08-21 08:00:00 14.2 13 Sudeste 23 Sudeste 0 -- -- 94
2019-08-21 07:00:00 14.1 12 Sudeste 23 Sur 0 -- -- 93
2019-08-21 06:00:00 13.7 17 Sur 24 Sudeste 0 -- -- 93
2019-08-21 05:00:00 13.5 14 Sur 27 Sur 0 -- -- 92
2019-08-21 04:00:00 14 15 Sudeste 24 Sudeste 0 -- -- 91
2019-08-21 03:00:00 14.5 15 Sudeste 23 Sudeste 0 -- -- 87
2019-08-21 02:00:00 14.8 8 Sudeste 16 Sudeste 0 -- -- 83
2019-08-21 01:00:00 15.2 4 Sudeste 9 Sudeste 0 -- -- 83
2019-08-21 00:00:00 15.3 2 Sudeste 10 Sudeste 0 -- -- 81